createdAt,value
2019-05-20T00:00:46.149Z,15.14
2019-05-20T00:01:45.888Z,15.29
2019-05-20T00:07:03.396Z,15.27
2019-05-20T00:07:14.371Z,15.27
2019-05-20T00:08:15.151Z,15.12
2019-05-20T00:09:14.382Z,15.19
2019-05-20T00:10:14.443Z,15.25
2019-05-20T00:11:14.397Z,15.37
2019-05-20T00:12:14.360Z,15.37
2019-05-20T00:13:14.385Z,15.32
2019-05-20T00:14:14.373Z,15.18
2019-05-20T00:15:14.380Z,15.29
2019-05-20T00:16:14.365Z,15.14
2019-05-20T00:17:14.416Z,15.11
2019-05-20T00:18:14.361Z,15.18
2019-05-20T00:19:14.431Z,15.29
2019-05-20T00:20:14.413Z,15.22
2019-05-20T00:21:14.443Z,15.14
2019-05-20T00:22:14.408Z,15.07
2019-05-20T00:23:14.350Z,15.15
2019-05-20T00:24:14.422Z,15.27
2019-05-20T00:25:14.384Z,15.26
2019-05-20T00:26:14.414Z,15.22
2019-05-20T00:27:14.395Z,15.27
2019-05-20T00:28:14.422Z,15.33
2019-05-20T00:29:14.433Z,15.35
2019-05-20T00:30:14.443Z,15.3
2019-05-20T00:31:14.425Z,15.32
2019-05-20T00:32:14.414Z,15.26
2019-05-20T00:33:14.401Z,15.3
2019-05-20T00:34:14.408Z,15.36
2019-05-20T00:35:14.396Z,15.32
2019-05-20T00:36:14.407Z,15.33
2019-05-20T00:37:14.430Z,15.22
2019-05-20T00:38:14.457Z,15.27
2019-05-20T00:39:14.456Z,15.35
2019-05-20T00:40:14.483Z,15.25
2019-05-20T00:41:14.515Z,15.14
2019-05-20T00:42:14.456Z,15.04
2019-05-20T00:43:14.443Z,15.08
2019-05-20T00:44:14.517Z,14.96
2019-05-20T00:45:14.413Z,14.99
2019-05-20T00:46:14.443Z,15.07
2019-05-20T00:47:14.447Z,14.94
2019-05-20T00:48:14.474Z,14.97
2019-05-20T00:49:14.401Z,14.96
2019-05-20T00:50:49.343Z,14.94
2019-05-20T00:51:14.455Z,15.02
2019-05-20T00:52:14.460Z,15.04
2019-05-20T00:53:14.528Z,14.9
2019-05-20T00:54:14.415Z,14.89
2019-05-20T00:55:14.463Z,14.99
2019-05-20T00:56:14.490Z,14.99
2019-05-20T00:57:14.512Z,15.02
2019-05-20T00:58:14.506Z,15.05
2019-05-20T00:59:14.448Z,15.08
2019-05-20T01:00:14.600Z,15.1
2019-05-20T01:01:14.497Z,15.04
2019-05-20T01:02:14.505Z,15
2019-05-20T01:03:14.474Z,14.94
2019-05-20T01:04:14.539Z,14.96
2019-05-20T01:05:14.466Z,14.9
2019-05-20T01:06:14.906Z,14.89
2019-05-20T01:07:14.459Z,14.89
2019-05-20T01:08:14.488Z,14.96
2019-05-20T01:09:14.449Z,14.99
2019-05-20T01:10:14.459Z,14.9
2019-05-20T01:11:14.511Z,14.85
2019-05-20T01:12:14.750Z,14.87
2019-05-20T01:17:31.176Z,14.63
2019-05-20T01:17:42.547Z,14.79
2019-05-20T01:18:42.226Z,14.79
2019-05-20T01:19:42.206Z,14.68
2019-05-20T01:20:42.231Z,14.7
2019-05-20T01:21:42.181Z,14.68
2019-05-20T01:22:42.247Z,14.62
2019-05-20T01:23:42.237Z,14.67
2019-05-20T01:24:42.218Z,14.66
2019-05-20T01:25:42.248Z,14.78
2019-05-20T01:26:42.231Z,14.87
2019-05-20T01:27:42.327Z,14.79
2019-05-20T01:28:42.231Z,14.89
2019-05-20T01:29:42.251Z,14.92
2019-05-20T01:30:42.221Z,14.9
2019-05-20T01:31:42.264Z,15
2019-05-20T01:32:42.274Z,14.96
2019-05-20T01:33:42.219Z,14.93
2019-05-20T01:34:42.310Z,15.04
2019-05-20T01:35:42.273Z,14.93
2019-05-20T01:36:42.244Z,15.02
2019-05-20T01:37:42.222Z,15.04
2019-05-20T01:38:42.227Z,14.99
2019-05-20T01:39:42.275Z,14.99
2019-05-20T01:40:42.264Z,15.04
2019-05-20T01:41:42.241Z,15
2019-05-20T01:42:42.291Z,15
2019-05-20T01:43:42.267Z,14.96
2019-05-20T01:44:42.303Z,14.97
2019-05-20T01:45:42.292Z,14.86
2019-05-20T01:46:42.258Z,15.07
2019-05-20T01:47:42.283Z,15.05
2019-05-20T01:48:42.231Z,15.04
2019-05-20T01:49:42.260Z,14.97
2019-05-20T01:50:42.258Z,14.9
2019-05-20T01:51:42.292Z,14.93
2019-05-20T01:52:42.257Z,14.92
2019-05-20T01:53:42.221Z,14.94
2019-05-20T01:54:42.249Z,15
2019-05-20T01:55:42.236Z,14.97
2019-05-20T01:56:42.304Z,15
2019-05-20T01:57:42.305Z,14.96
2019-05-20T01:58:44.918Z,14.97
2019-05-20T01:59:42.404Z,14.96
2019-05-20T02:00:42.287Z,14.96
2019-05-20T02:01:42.254Z,14.94
2019-05-20T02:02:42.371Z,15.07
2019-05-20T02:03:42.303Z,14.99
2019-05-20T02:04:42.280Z,14.96
2019-05-20T02:05:42.363Z,15
2019-05-20T02:06:42.288Z,14.97
2019-05-20T02:07:42.339Z,14.97
2019-05-20T02:08:42.327Z,14.99
2019-05-20T02:09:42.305Z,14.89
2019-05-20T02:10:42.306Z,14.97
2019-05-20T02:11:42.474Z,14.96
2019-05-20T02:12:42.296Z,14.96
2019-05-20T02:13:42.532Z,15
2019-05-20T02:14:42.308Z,14.99
2019-05-20T02:15:42.553Z,14.99
2019-05-20T02:16:42.374Z,14.96
2019-05-20T02:17:42.358Z,14.94
2019-05-20T02:18:42.356Z,14.97
2019-05-20T02:19:42.301Z,14.96
2019-05-20T02:20:42.350Z,14.97
2019-05-20T02:21:42.376Z,14.93
2019-05-20T02:22:42.451Z,14.96
2019-05-20T02:23:42.329Z,15.02
2019-05-20T02:24:42.356Z,14.93
2019-05-20T02:25:46.502Z,14.97
2019-05-20T02:26:42.357Z,14.99
2019-05-20T02:27:42.333Z,14.93
2019-05-20T02:28:42.362Z,14.77
2019-05-20T02:29:42.334Z,14.71
2019-05-20T02:30:42.396Z,14.93
2019-05-20T02:31:42.321Z,14.94
2019-05-20T02:32:42.374Z,14.9
2019-05-20T02:33:56.877Z,14.9
2019-05-20T02:34:42.471Z,14.94
2019-05-20T02:35:42.367Z,14.77
2019-05-20T02:36:42.359Z,14.85
2019-05-20T02:37:42.403Z,14.81
2019-05-20T02:38:42.404Z,14.96
2019-05-20T02:39:42.425Z,14.92
2019-05-20T02:40:42.385Z,14.92
2019-05-20T02:41:42.438Z,14.85
2019-05-20T02:42:42.404Z,14.96
2019-05-20T02:43:42.365Z,14.78
2019-05-20T02:44:42.370Z,14.82
2019-05-20T02:45:42.380Z,14.85
2019-05-20T02:46:42.365Z,14.9
2019-05-20T02:47:42.622Z,14.77
2019-05-20T02:48:42.383Z,14.79
2019-05-20T02:49:42.360Z,14.74
2019-05-20T02:50:42.432Z,14.68
2019-05-20T02:51:42.362Z,14.73
2019-05-20T02:52:42.423Z,14.67
2019-05-20T02:53:42.417Z,14.68
2019-05-20T02:54:42.360Z,14.62
2019-05-20T02:55:42.460Z,14.58
2019-05-20T02:56:42.372Z,14.71
2019-05-20T02:57:42.404Z,14.56
2019-05-20T02:58:42.427Z,14.66
2019-05-20T02:59:42.755Z,14.63
2019-05-20T03:00:42.474Z,14.61
2019-05-20T03:01:42.385Z,14.59
2019-05-20T03:02:42.413Z,14.63
2019-05-20T03:03:42.354Z,14.62
2019-05-20T03:04:42.343Z,14.55
2019-05-20T03:05:42.409Z,14.45
2019-05-20T03:06:42.392Z,14.45
2019-05-20T03:07:42.378Z,14.53
2019-05-20T03:08:42.408Z,14.52
2019-05-20T03:09:42.460Z,14.53
2019-05-20T03:10:42.464Z,14.53
2019-05-20T03:11:42.562Z,14.56
2019-05-20T03:12:42.435Z,14.55
2019-05-20T03:13:42.407Z,14.48
2019-05-20T03:14:42.413Z,14.51
2019-05-20T03:15:42.546Z,14.55
2019-05-20T03:16:42.471Z,14.55
2019-05-20T03:17:42.419Z,14.53
2019-05-20T03:18:42.359Z,14.49
2019-05-20T03:19:42.390Z,14.55
2019-05-20T03:20:42.455Z,14.56
2019-05-20T03:21:42.403Z,14.58
2019-05-20T03:22:42.375Z,14.62
2019-05-20T03:23:42.434Z,14.55
2019-05-20T03:24:42.460Z,14.59
2019-05-20T03:25:42.473Z,14.67
2019-05-20T03:26:42.413Z,14.68
2019-05-20T03:27:42.562Z,14.66
2019-05-20T03:28:42.425Z,14.63
2019-05-20T03:29:42.438Z,14.63
2019-05-20T03:30:42.482Z,14.63
2019-05-20T03:31:42.465Z,14.61
2019-05-20T03:32:42.478Z,14.59
2019-05-20T03:33:42.666Z,14.62
2019-05-20T03:36:02.445Z,14.62
2019-05-20T03:37:01.017Z,14.66
2019-05-20T03:38:01.038Z,14.59
2019-05-20T03:39:01.031Z,14.63
2019-05-20T03:40:01.119Z,14.58
2019-05-20T03:41:01.061Z,14.66
2019-05-20T03:42:01.127Z,14.48
2019-05-20T03:43:01.032Z,14.7
2019-05-20T03:44:01.057Z,14.55
2019-05-20T03:45:01.023Z,14.49
2019-05-20T03:46:01.059Z,14.43
2019-05-20T03:47:01.107Z,14.43
2019-05-20T03:48:01.022Z,14.44
2019-05-20T03:49:01.116Z,14.37
2019-05-20T03:50:01.034Z,14.44
2019-05-20T03:51:01.048Z,14.4
2019-05-20T03:52:01.089Z,14.37
2019-05-20T03:53:01.014Z,14.34
2019-05-20T03:54:01.000Z,14.41
2019-05-20T03:55:01.050Z,14.37
2019-05-20T03:56:01.034Z,14.41
2019-05-20T03:57:01.020Z,14.41
2019-05-20T03:58:01.051Z,14.36
2019-05-20T03:59:01.034Z,14.41
2019-05-20T04:00:01.061Z,14.52
2019-05-20T04:01:01.027Z,14.44
2019-05-20T04:02:01.010Z,14.53
2019-05-20T04:03:01.022Z,14.53
2019-05-20T04:04:01.074Z,14.51
2019-05-20T04:05:08.124Z,14.43
2019-05-20T04:06:01.087Z,14.55
2019-05-20T04:07:01.164Z,14.52
2019-05-20T04:08:01.119Z,14.62
2019-05-20T04:09:01.044Z,14.62
2019-05-20T04:10:01.006Z,14.56
2019-05-20T04:11:01.070Z,14.73
2019-05-20T04:12:01.057Z,14.62
2019-05-20T04:13:01.061Z,14.68
2019-05-20T04:14:01.051Z,14.66
2019-05-20T04:15:01.054Z,14.71
2019-05-20T04:16:01.059Z,14.71
2019-05-20T04:17:01.189Z,14.68
2019-05-20T04:18:01.053Z,14.71
2019-05-20T04:19:01.157Z,14.71
2019-05-20T04:20:01.082Z,14.68
2019-05-20T04:21:01.053Z,14.78
2019-05-20T04:22:01.162Z,14.73
2019-05-20T04:23:01.152Z,14.78
2019-05-20T04:24:06.583Z,14.81
2019-05-20T04:25:01.102Z,14.77
2019-05-20T04:26:01.416Z,14.92
2019-05-20T04:27:01.222Z,14.94
2019-05-20T04:28:01.189Z,14.82
2019-05-20T04:29:01.096Z,14.7
2019-05-20T04:30:01.223Z,14.73
2019-05-20T04:31:01.066Z,14.67
2019-05-20T04:32:01.237Z,14.68
2019-05-20T04:33:01.092Z,14.61
2019-05-20T04:34:01.117Z,14.62
2019-05-20T04:35:18.630Z,14.68
2019-05-20T04:36:01.113Z,14.77
2019-05-20T04:37:01.078Z,14.87
2019-05-20T04:38:01.186Z,14.92
2019-05-20T04:39:01.097Z,14.94
2019-05-20T04:40:01.158Z,14.94
2019-05-20T04:41:01.206Z,15.04
2019-05-20T04:42:01.178Z,14.96
2019-05-20T04:43:01.130Z,15.04
2019-05-20T04:44:01.074Z,15.17
2019-05-20T04:45:01.098Z,15.12
2019-05-20T04:46:01.129Z,15.11
2019-05-20T04:47:03.350Z,15.17
2019-05-20T04:48:01.116Z,15.22
2019-05-20T04:49:01.167Z,15.17
2019-05-20T04:50:01.115Z,15.15
2019-05-20T04:51:01.106Z,15.23
2019-05-20T04:52:01.127Z,15.05
2019-05-20T04:53:01.119Z,15.08
2019-05-20T04:54:01.165Z,15.12
2019-05-20T04:55:01.133Z,15.15
2019-05-20T04:56:01.132Z,15.29
2019-05-20T04:57:01.138Z,15.35
2019-05-20T04:58:01.109Z,15.3
2019-05-20T04:59:01.139Z,15.23
2019-05-20T05:00:01.153Z,15.25
2019-05-20T05:01:01.274Z,15.15
2019-05-20T05:02:01.120Z,15.14
2019-05-20T05:03:01.115Z,15.15
2019-05-20T05:04:01.166Z,15.22
2019-05-20T05:05:01.137Z,15.12
2019-05-20T05:06:01.119Z,15.15
2019-05-20T05:07:01.230Z,15.12
2019-05-20T05:08:01.196Z,15.07
2019-05-20T05:09:01.155Z,15.17
2019-05-20T05:10:01.146Z,15.19
2019-05-20T05:11:01.129Z,15.15
2019-05-20T05:12:01.197Z,15.25
2019-05-20T05:13:01.198Z,15.23
2019-05-20T05:14:01.154Z,15.18
2019-05-20T05:15:01.161Z,15.1
2019-05-20T05:16:01.138Z,15.22
2019-05-20T05:17:01.190Z,15.26
2019-05-20T05:18:01.541Z,15.26
2019-05-20T05:19:01.288Z,15.26
2019-05-20T05:20:01.143Z,15.17
2019-05-20T05:21:01.166Z,15.27
2019-05-20T05:22:01.157Z,15.19
2019-05-20T05:23:01.190Z,15.29
2019-05-20T05:24:04.757Z,15.29
2019-05-20T05:25:01.179Z,15.22
2019-05-20T05:26:01.287Z,15.27
2019-05-20T05:27:01.236Z,15.33
2019-05-20T05:28:01.280Z,15.3
2019-05-20T05:29:01.183Z,15.25
2019-05-20T05:30:01.447Z,15.22
2019-05-20T05:31:01.284Z,15.29
2019-05-20T05:32:01.185Z,15.3
2019-05-20T05:33:01.217Z,15.32
2019-05-20T05:34:01.242Z,15.32
2019-05-20T05:35:01.143Z,15.45
2019-05-20T05:36:01.191Z,15.47
2019-05-20T05:37:01.196Z,15.39
2019-05-20T05:38:01.857Z,15.5
2019-05-20T05:41:08.785Z,15.65
2019-05-20T05:41:30.933Z,15.51
2019-05-20T05:42:19.782Z,15.7
2019-05-20T05:43:19.784Z,15.72
2019-05-20T05:44:19.811Z,15.48
2019-05-20T05:45:19.736Z,15.69
2019-05-20T05:46:19.884Z,15.65
2019-05-20T05:47:19.832Z,15.85
2019-05-20T05:48:19.787Z,15.8
2019-05-20T05:49:19.790Z,15.9
2019-05-20T05:50:19.777Z,15.88
2019-05-20T05:51:19.756Z,15.91
2019-05-20T05:52:22.718Z,15.96
2019-05-20T05:53:19.774Z,15.99
2019-05-20T05:54:19.825Z,15.9
2019-05-20T05:55:19.782Z,15.88
2019-05-20T05:56:19.810Z,15.87
2019-05-20T05:57:19.843Z,15.99
2019-05-20T05:58:19.804Z,15.96
2019-05-20T05:59:19.774Z,15.9
2019-05-20T06:00:19.815Z,16.02
2019-05-20T06:01:19.813Z,16.08
2019-05-20T06:02:19.794Z,16.06
2019-05-20T06:03:19.814Z,16.08
2019-05-20T06:04:19.943Z,15.94
2019-05-20T06:05:19.809Z,15.99
2019-05-20T06:06:19.895Z,16.02
2019-05-20T06:07:19.891Z,16
2019-05-20T06:08:20.235Z,15.94
2019-05-20T06:09:19.882Z,16.08
2019-05-20T06:11:35.718Z,16
2019-05-20T06:12:35.725Z,16.12
2019-05-20T06:13:35.710Z,16.25
2019-05-20T06:14:35.656Z,16.16
2019-05-20T06:15:35.683Z,16.36
2019-05-20T06:16:41.812Z,16.46
2019-05-20T06:17:35.635Z,16.4
2019-05-20T06:18:35.787Z,16.54
2019-05-20T06:19:35.646Z,16.51
2019-05-20T06:20:35.679Z,16.58
2019-05-20T06:21:35.641Z,16.58
2019-05-20T06:22:35.723Z,16.76
2019-05-20T06:23:35.719Z,16.86
2019-05-20T06:24:35.643Z,16.91
2019-05-20T06:26:10.797Z,17.02
2019-05-20T06:26:35.691Z,16.87
2019-05-20T06:27:35.725Z,17.1
2019-05-20T06:28:35.833Z,17.05
2019-05-20T06:29:35.732Z,17.05
2019-05-20T06:30:36.090Z,17.07
2019-05-20T06:31:35.866Z,16.91
2019-05-20T06:32:35.731Z,17.04
2019-05-20T06:33:35.679Z,16.94
2019-05-20T06:34:35.839Z,17.01
2019-05-20T06:35:35.712Z,16.82
2019-05-20T06:36:35.742Z,16.77
2019-05-20T06:37:35.691Z,16.66
2019-05-20T06:38:35.922Z,16.76
2019-05-20T06:39:35.966Z,16.91
2019-05-20T06:40:35.750Z,16.82
2019-05-20T06:41:39.533Z,16.8
2019-05-20T06:42:35.875Z,16.66
2019-05-20T06:43:35.880Z,16.66
2019-05-20T06:44:51.590Z,16.76
2019-05-20T06:45:35.819Z,16.87
2019-05-20T06:46:35.738Z,17.05
2019-05-20T06:47:35.750Z,17.1
2019-05-20T06:48:35.765Z,17.12
2019-05-20T06:49:35.721Z,17.17
2019-05-20T06:50:35.777Z,17.07
2019-05-20T06:51:35.719Z,17.2
2019-05-20T06:52:41.346Z,17.24
2019-05-20T06:53:35.746Z,17.44
2019-05-20T06:54:35.746Z,17.52
2019-05-20T06:55:35.717Z,17.47
2019-05-20T06:56:35.897Z,17.47
2019-05-20T06:57:35.786Z,17.56
2019-05-20T06:58:35.741Z,17.39
2019-05-20T06:59:35.760Z,17.59
2019-05-20T07:00:35.753Z,17.72
2019-05-20T07:01:35.790Z,17.63
2019-05-20T07:02:35.745Z,17.47
2019-05-20T07:07:52.327Z,18.12
2019-05-20T07:08:06.473Z,18.15
2019-05-20T07:09:03.345Z,18.42
2019-05-20T07:10:03.341Z,18.33
2019-05-20T07:11:03.367Z,18.46
2019-05-20T07:12:03.324Z,18.31
2019-05-20T07:13:03.362Z,18.53
2019-05-20T07:14:03.350Z,18.51
2019-05-20T07:15:03.349Z,18
2019-05-20T07:16:03.299Z,18.36
2019-05-20T07:17:03.341Z,18.23
2019-05-20T07:18:03.368Z,18.37
2019-05-20T07:19:03.333Z,18.42
2019-05-20T07:20:03.297Z,18.58
2019-05-20T07:21:03.352Z,18.51
2019-05-20T07:22:03.334Z,18.48
2019-05-20T07:23:03.386Z,18.58
2019-05-20T07:24:03.352Z,18.58
2019-05-20T07:25:03.360Z,18.53
2019-05-20T07:26:03.406Z,18.49
2019-05-20T07:27:03.365Z,18.57
2019-05-20T07:28:03.418Z,18.3
2019-05-20T07:29:03.415Z,18.66
2019-05-20T07:30:03.475Z,18.63
2019-05-20T07:31:03.556Z,18.46
2019-05-20T07:32:03.339Z,18.39
2019-05-20T07:33:03.393Z,18.61
2019-05-20T07:34:03.524Z,18.73
2019-05-20T07:35:03.358Z,18.46
2019-05-20T07:36:03.365Z,18.96
2019-05-20T07:37:08.558Z,18.97
2019-05-20T07:38:03.548Z,18.89
2019-05-20T07:39:03.451Z,19.01
2019-05-20T07:40:03.398Z,18.92
2019-05-20T07:41:03.399Z,19.01
2019-05-20T07:42:03.497Z,19
2019-05-20T07:43:03.462Z,18.79
2019-05-20T07:44:03.662Z,18.97
2019-05-20T07:47:13.604Z,18.91
2019-05-20T07:47:24.661Z,18.82
2019-05-20T07:48:24.788Z,18.98
2019-05-20T07:49:24.660Z,19.05
2019-05-20T07:50:24.698Z,19.16
2019-05-20T07:51:24.609Z,18.88
2019-05-20T07:52:24.620Z,18.92
2019-05-20T07:53:24.631Z,18.73
2019-05-20T07:54:24.630Z,18.85
2019-05-20T07:55:24.648Z,18.89
2019-05-20T07:56:24.580Z,18.74
2019-05-20T07:57:24.672Z,18.61
2019-05-20T07:58:24.819Z,18.63
2019-05-20T07:59:24.653Z,18.48
2019-05-20T08:00:24.690Z,18.51
2019-05-20T08:01:24.700Z,18.42
2019-05-20T08:02:24.664Z,18.46
2019-05-20T08:07:51.668Z,18.53
2019-05-20T08:08:03.502Z,18.49
2019-05-20T08:09:03.468Z,18.42
2019-05-20T08:10:03.521Z,18.43
2019-05-20T08:11:03.318Z,18.37
2019-05-20T08:12:03.442Z,18.21
2019-05-20T08:13:03.634Z,18.19
2019-05-20T08:14:03.434Z,18.39
2019-05-20T08:15:03.357Z,18.34
2019-05-20T08:16:05.102Z,18.27
2019-05-20T08:17:03.411Z,18.37
2019-05-20T08:18:06.697Z,18.33
2019-05-20T08:19:07.407Z,18.37
2019-05-20T08:20:03.358Z,18.46
2019-05-20T08:21:06.856Z,18.39
2019-05-20T08:27:44.965Z,18.53
2019-05-20T08:28:45.002Z,18.43
2019-05-20T08:29:44.949Z,18.37
2019-05-20T08:30:45.015Z,18.28
2019-05-20T08:31:45.166Z,18.28
2019-05-20T08:32:44.983Z,18.23
2019-05-20T08:33:45.028Z,18.3
2019-05-20T08:34:45.817Z,18.21
2019-05-20T08:36:19.842Z,18.03
2019-05-20T08:36:45.067Z,18.05
2019-05-20T08:37:50.710Z,18.11
2019-05-20T08:38:45.027Z,18.06
2019-05-20T08:39:44.968Z,18.06
2019-05-20T08:40:48.439Z,18
2019-05-20T08:46:11.821Z,18.08
2019-05-20T08:46:22.982Z,17.84
2019-05-20T08:47:22.908Z,17.91
2019-05-20T08:48:22.914Z,17.82
2019-05-20T08:49:22.865Z,18.02
2019-05-20T08:50:22.903Z,17.94
2019-05-20T08:51:23.096Z,17.9
2019-05-20T08:52:22.903Z,17.93
2019-05-20T08:53:22.861Z,17.88
2019-05-20T08:54:22.933Z,18.05
2019-05-20T08:55:22.901Z,17.93
2019-05-20T08:56:23.343Z,17.87
2019-05-20T08:57:22.887Z,17.78
2019-05-20T08:58:22.998Z,17.78
2019-05-20T08:59:22.987Z,17.97
2019-05-20T09:00:29.195Z,17.95
2019-05-20T09:01:22.896Z,17.84
2019-05-20T09:02:24.440Z,17.73
2019-05-20T09:03:22.932Z,17.86
2019-05-20T09:04:22.877Z,17.6
2019-05-20T09:05:22.943Z,17.84
2019-05-20T09:06:25.969Z,17.76
2019-05-20T09:07:23.016Z,17.84
2019-05-20T09:08:22.942Z,17.54
2019-05-20T09:09:23.152Z,17.68
2019-05-20T09:10:23.724Z,17.79
2019-05-20T09:11:22.920Z,17.86
2019-05-20T09:12:23.106Z,17.84
2019-05-20T09:13:22.922Z,17.79
2019-05-20T09:17:52.843Z,18.05
2019-05-20T09:18:52.774Z,18
2019-05-20T09:19:52.838Z,17.95
2019-05-20T09:20:52.786Z,18.05
2019-05-20T09:21:52.807Z,18.05
2019-05-20T09:22:52.850Z,18.02
2019-05-20T09:23:52.762Z,18.03
2019-05-20T09:24:53.892Z,17.94
2019-05-20T09:25:52.789Z,17.93
2019-05-20T09:26:53.052Z,18
2019-05-20T09:27:52.805Z,17.94
2019-05-20T09:28:52.830Z,17.79
2019-05-20T09:29:52.837Z,17.82
2019-05-20T09:30:52.935Z,17.84
2019-05-20T09:31:52.880Z,17.73
2019-05-20T09:32:52.817Z,17.82
2019-05-20T09:33:52.822Z,17.8
2019-05-20T09:34:52.788Z,17.75
2019-05-20T09:35:52.989Z,17.72
2019-05-20T09:36:52.800Z,17.79
2019-05-20T09:37:52.814Z,17.79
2019-05-20T09:38:52.818Z,17.93
2019-05-20T09:39:53.108Z,17.82
2019-05-20T09:40:52.798Z,17.84
2019-05-20T09:41:58.245Z,18
2019-05-20T09:42:58.359Z,17.98
2019-05-20T09:43:58.199Z,18.03
2019-05-20T09:45:02.051Z,17.84
2019-05-20T09:46:11.878Z,18.03
2019-05-20T09:46:58.219Z,17.9
2019-05-20T09:47:58.274Z,17.87
2019-05-20T09:48:58.257Z,17.91
2019-05-20T09:49:58.284Z,17.93
2019-05-20T09:50:58.206Z,18.09
2019-05-20T09:51:58.610Z,18.03
2019-05-20T09:52:58.258Z,17.79
2019-05-20T09:53:58.252Z,17.88
2019-05-20T09:54:58.214Z,18.05
2019-05-20T09:55:58.207Z,18
2019-05-20T09:56:58.228Z,18.26
2019-05-20T09:57:58.255Z,18.24
2019-05-20T09:58:58.278Z,18.12
2019-05-20T09:59:58.186Z,18.16
2019-05-20T10:00:58.232Z,18.05
2019-05-20T10:01:58.238Z,18.11
2019-05-20T10:02:58.630Z,18.02
2019-05-20T10:03:58.219Z,17.94
2019-05-20T10:04:58.217Z,18.03
2019-05-20T10:05:58.234Z,18.08
2019-05-20T10:06:58.234Z,17.93
2019-05-20T10:07:58.316Z,18.05
2019-05-20T10:08:58.267Z,17.93
2019-05-20T10:09:58.250Z,17.93
2019-05-20T10:11:02.348Z,17.98
2019-05-20T10:11:58.244Z,17.9
2019-05-20T10:12:58.379Z,17.98
2019-05-20T10:13:58.252Z,17.82
2019-05-20T10:17:05.865Z,17.97
2019-05-20T10:17:16.915Z,18.06
2019-05-20T10:18:34.325Z,18.05
2019-05-20T10:19:16.943Z,18.15
2019-05-20T10:20:16.837Z,18.16
2019-05-20T10:21:16.870Z,18.23
2019-05-20T10:22:17.206Z,18.28
2019-05-20T10:23:20.878Z,18.26
2019-05-20T10:24:16.957Z,18.21
2019-05-20T10:25:16.880Z,18.19
2019-05-20T10:26:16.925Z,18.24
2019-05-20T10:27:16.918Z,18.19
2019-05-20T10:28:17.210Z,18.33
2019-05-20T10:29:16.924Z,18.33
2019-05-20T10:30:16.990Z,18.34
2019-05-20T10:31:16.947Z,18.43
2019-05-20T10:32:16.901Z,18.43
2019-05-20T10:33:16.895Z,18.24
2019-05-20T10:34:16.921Z,18.27
2019-05-20T10:35:16.940Z,18.27
2019-05-20T10:36:16.910Z,18.05
2019-05-20T10:37:16.955Z,18
2019-05-20T10:38:16.931Z,18
2019-05-20T10:39:16.911Z,17.88
2019-05-20T10:40:16.925Z,18.02
2019-05-20T10:41:16.942Z,18.05
2019-05-20T10:42:17.204Z,18.02
2019-05-20T10:43:17.082Z,18.03
2019-05-20T10:44:16.946Z,17.97
2019-05-20T10:45:16.917Z,17.9
2019-05-20T10:46:16.898Z,17.76
2019-05-20T10:47:16.946Z,17.87
2019-05-20T10:48:16.970Z,17.79
2019-05-20T10:49:16.915Z,17.82
2019-05-20T10:50:16.899Z,17.93
2019-05-20T10:51:16.915Z,18
2019-05-20T10:52:16.957Z,17.87
2019-05-20T10:53:16.983Z,18.05
2019-05-20T10:54:16.992Z,17.95
2019-05-20T10:55:17.039Z,18
2019-05-20T10:56:18.316Z,17.94
2019-05-20T10:57:17.215Z,17.91
2019-05-20T10:58:16.921Z,18
2019-05-20T10:59:17.637Z,18.05
2019-05-20T11:00:16.910Z,18.15
2019-05-20T11:01:16.952Z,18.26
2019-05-20T11:02:16.977Z,18.05
2019-05-20T11:03:16.949Z,18.09
2019-05-20T11:04:17.026Z,18.15
2019-05-20T11:05:16.964Z,17.94
2019-05-20T11:06:17.072Z,18.09
2019-05-20T11:07:16.989Z,18.15
2019-05-20T11:08:16.941Z,17.97
2019-05-20T11:09:20.059Z,18.3
2019-05-20T11:10:16.975Z,18.28
2019-05-20T11:11:19.744Z,18.27
2019-05-20T11:12:17.174Z,17.95
2019-05-20T11:13:16.997Z,18.31
2019-05-20T11:14:16.975Z,18.37
2019-05-20T11:15:17.055Z,18.43
2019-05-20T11:16:17.059Z,18.34
2019-05-20T11:17:20.383Z,18.46
2019-05-20T11:18:17.069Z,18.43
2019-05-20T11:19:17.017Z,18.6
2019-05-20T11:20:17.188Z,18.6
2019-05-20T11:21:17.351Z,18.63
2019-05-20T11:22:17.014Z,18.63
2019-05-20T11:23:17.002Z,18.58
2019-05-20T11:24:17.006Z,18.68
2019-05-20T11:25:17.052Z,18.81
2019-05-20T11:26:16.979Z,18.81
2019-05-20T11:27:16.985Z,18.74
2019-05-20T11:28:17.485Z,18.76
2019-05-20T11:29:17.101Z,18.81
2019-05-20T11:30:17.005Z,18.83
2019-05-20T11:31:16.975Z,18.86
2019-05-20T11:32:17.042Z,18.73
2019-05-20T11:33:17.004Z,18.82
2019-05-20T11:34:17.016Z,18.79
2019-05-20T11:35:17.021Z,18.91
2019-05-20T11:36:16.986Z,18.96
2019-05-20T11:37:17.013Z,19
2019-05-20T11:38:17.101Z,19.04
2019-05-20T11:39:34.295Z,18.96
2019-05-20T11:40:18.263Z,19.04
2019-05-20T11:41:17.015Z,18.97
2019-05-20T11:42:17.103Z,18.98
2019-05-20T11:43:17.012Z,18.91
2019-05-20T11:44:17.367Z,18.92
2019-05-20T11:45:17.031Z,18.86
2019-05-20T11:46:17.029Z,19
2019-05-20T11:47:17.035Z,18.91
2019-05-20T11:48:17.046Z,18.63
2019-05-20T11:49:17.027Z,18.88
2019-05-20T11:50:17.172Z,18.82
2019-05-20T11:51:17.043Z,18.89
2019-05-20T11:56:34.034Z,19.12
2019-05-20T11:56:45.118Z,18.92
2019-05-20T11:57:45.164Z,19.17
2019-05-20T11:58:45.102Z,19.23
2019-05-20T11:59:45.131Z,19.22
2019-05-20T12:00:45.160Z,19.32
2019-05-20T12:01:45.196Z,19.22
2019-05-20T12:02:45.112Z,19.41
2019-05-20T12:03:45.079Z,19.52
2019-05-20T12:04:45.104Z,19.32
2019-05-20T12:05:45.294Z,19.38
2019-05-20T12:06:45.095Z,19.41
2019-05-20T12:07:45.207Z,19.52
2019-05-20T12:12:05.070Z,19.56
2019-05-20T12:12:16.108Z,19.59
2019-05-20T12:13:16.165Z,19.47
2019-05-20T12:14:16.015Z,19.3
2019-05-20T12:15:16.081Z,19.22
2019-05-20T12:16:16.140Z,19.3
2019-05-20T12:17:16.055Z,19.3
2019-05-20T12:18:16.097Z,19.29
2019-05-20T12:19:16.087Z,19.24
2019-05-20T12:20:17.882Z,19.23
2019-05-20T12:21:16.097Z,19.3
2019-05-20T12:22:16.043Z,19.27
2019-05-20T12:23:16.097Z,19.26
2019-05-20T12:24:16.056Z,19.2
2019-05-20T12:25:16.115Z,19.22
2019-05-20T12:26:16.049Z,19.16
2019-05-20T12:27:16.109Z,19.2
2019-05-20T12:32:33.717Z,19.22
2019-05-20T12:32:44.764Z,19.27
2019-05-20T12:33:44.732Z,19.39
2019-05-20T12:34:44.738Z,19.27
2019-05-20T12:35:44.764Z,19.34
2019-05-20T12:36:44.758Z,19.29
2019-05-20T12:37:48.737Z,19.23
2019-05-20T12:38:44.742Z,19.29
2019-05-20T12:39:44.830Z,19.47
2019-05-20T12:40:44.794Z,19.42
2019-05-20T12:41:44.886Z,19.48
2019-05-20T12:42:44.791Z,19.59
2019-05-20T12:44:07.788Z,19.6
2019-05-20T12:44:44.807Z,19.57
2019-05-20T12:45:44.774Z,19.49
2019-05-20T12:46:44.821Z,19.59
2019-05-20T12:47:44.826Z,19.66
2019-05-20T12:48:44.918Z,19.67
2019-05-20T12:49:44.755Z,19.71
2019-05-20T12:50:44.784Z,19.57
2019-05-20T12:51:44.844Z,19.53
2019-05-20T12:52:44.840Z,19.57
2019-05-20T12:53:44.867Z,19.66
2019-05-20T12:54:44.811Z,19.59
2019-05-20T12:55:45.122Z,19.49
2019-05-20T12:56:59.897Z,19.72
2019-05-20T12:57:44.814Z,19.57
2019-05-20T13:02:17.149Z,20.1
2019-05-20T13:03:13.699Z,20.17
2019-05-20T13:04:14.178Z,20.33
2019-05-20T13:05:13.569Z,20.49
2019-05-20T13:06:13.637Z,20.24
2019-05-20T13:07:13.887Z,20.39
2019-05-20T13:08:14.039Z,20.48
2019-05-20T13:09:13.682Z,20.5
2019-05-20T13:10:35.071Z,20.49
2019-05-20T13:11:13.676Z,20.55
2019-05-20T13:12:17.504Z,20.55
2019-05-20T13:13:13.642Z,20.48
2019-05-20T13:14:14.056Z,20.52
2019-05-20T13:15:14.104Z,20.48
2019-05-20T13:16:13.881Z,20.4
2019-05-20T13:17:14.118Z,20.34
2019-05-20T13:18:13.652Z,20.33
2019-05-20T13:19:13.621Z,20.3
2019-05-20T13:20:13.672Z,20.15
2019-05-20T13:21:13.676Z,20.12
2019-05-20T13:22:14.498Z,20.11
2019-05-20T13:23:18.539Z,20.22
2019-05-20T13:24:13.614Z,20.18
2019-05-20T13:25:13.616Z,20.33
2019-05-20T13:26:13.724Z,20.37
2019-05-20T13:27:13.985Z,20.27
2019-05-20T13:28:13.614Z,20.46
2019-05-20T13:29:13.832Z,20.11
2019-05-20T13:30:13.631Z,19.99
2019-05-20T13:31:13.703Z,19.93
2019-05-20T13:32:13.665Z,20.1
2019-05-20T13:33:13.647Z,19.93
2019-05-20T13:34:13.660Z,20.04
2019-05-20T13:35:13.703Z,19.82
2019-05-20T13:36:13.670Z,19.93
2019-05-20T13:37:13.667Z,19.72
2019-05-20T13:38:13.686Z,19.85
2019-05-20T13:39:13.674Z,19.85
2019-05-20T13:40:13.658Z,19.89
2019-05-20T13:41:13.685Z,19.93
2019-05-20T13:42:24.642Z,19.93
2019-05-20T13:43:13.712Z,19.94